CheckWX is a tool to help pilots better visualize weather data.  It is not intended as a substitute for an official pre-flight weather briefing.

08:00:40 UTC

EFKI TAF
Kajaani Airport
Kajaani, Finland
TAF EFKI 190535Z 1906/1915 20005KT 9999 OVC005 TEMPO 1906/1909 2000 -SNRA OVC003 BECMG 1910/1912 BKN010 TEMPO 1912/1915 7000 -SN BKN007

Mar-19@
06:00 UTC

Mar-19 @ 06:00 UTC

Mar-19@
10:00 UTC

Mar-19 @ 10:00 UTC

TAF EFKI 190535Z 1906/1915 20005KT 9999 OVC005
Wind
  • 200° at 5 KTS
Cloud Levels
  • Overcast at 500' AGL

Mar-19@
06:00 UTC

Mar-19 @ 06:00 UTC

Mar-19@
09:00 UTC

Mar-19 @ 09:00 UTC

TEMPO 1906/1909 2000 -SNRA OVC003

Temporary

Temporary Changes expected for less than half the time period

Conditions
Light Snow, Light Rain
Cloud Levels
  • Overcast at 300' AGL

Mar-19@
10:00 UTC

Mar-19 @ 10:00 UTC

Mar-19@
15:00 UTC

Mar-19 @ 15:00 UTC

BECMG 1910/1912 BKN010

Becoming

Becoming Conditions expected by Tue, Mar 19, 2019 @ 12:00 UTC

Wind
  • 200° at 5 KTS
Cloud Levels
  • Broken at 1,000' AGL

Mar-19@
12:00 UTC

Mar-19 @ 12:00 UTC

Mar-19@
15:00 UTC

Mar-19 @ 15:00 UTC

TEMPO 1912/1915 7000 -SN BKN007

Temporary

Temporary Changes expected for less than half the time period

Conditions
Light Snow
Cloud Levels
  • Broken at 700' AGL